Dalton, Arkansas
Current Conditions -  °F | °C
As of 12:55 AM on Thursday 27 Nov 2014 (Local Time) from KARG Reporting Station
Overcast Overcast  
Wind Chill: 30°   Ceiling: 3400
Heat Index: 39°   Visibility: 10mi
Dew Point: 28°   Wind: 16mph
Humidity: 65%   Direction: 310°NW
Pressure: 30.27"   Gusts: 23mph
Location:  36.3332°N, 91.0542°W
Report Text: KARG 270655Z AUTO 31014G20KT 10SM OVC034 04/M02 A3027 RMK AO1
Loading
Personal Weather Stations






























Interactive Weather Map New forecast layout! Learn more

10-Day Weather Forecast

Advertisements
Track Severe Weather on mobile